Time;durP1;ratioP1;P1;durP2;ratioP2;P2;SDS_P1;SDS_P2;PMS_P1;PMS_P2;Temp;Humidity;BMP_temperature;BMP_pressure;BME280_temperature;BME280_humidity;BME280_pressure;Samples;Min_cycle;Max_cycle;Signal;HPM_P1;HPM_P2
2023/11/01 00:00:33;;;;;;;2.05;1.63;;;;;;;10.44;75.14;96185.31;6176656;23;20036;-78
2023/11/01 00:03:00;;;;;;;2.38;1.92;;;;;;;10.39;75.26;96190.31;6185255;23;20040;-78
2023/11/01 00:05:28;;;;;;;6.95;3.58;;;;;;;10.34;75.56;96187.47;6184515;23;20498;-79
2023/11/01 00:07:57;;;;;;;8.02;4.93;;;;;;;10.30;75.75;96189.66;6185350;23;20053;-79
2023/11/01 00:10:24;;;;;;;9.95;5.25;;;;;;;10.28;75.91;96188.22;6184368;23;20021;-79
2023/11/01 00:12:52;;;;;;;10.43;6.20;;;;;;;10.26;75.94;96185.78;6184609;23;20537;-79
2023/11/01 00:15:19;;;;;;;11.38;6.40;;;;;;;10.22;76.21;96179.34;6184349;23;20108;-79
2023/11/01 00:17:48;;;;;;;8.35;4.38;;;;;;;10.20;76.04;96183.94;6185011;23;20056;-79
2023/11/01 00:20:16;;;;;;;10.18;5.18;;;;;;;10.19;76.19;96179.72;6185063;23;20063;-79
2023/11/01 00:22:44;;;;;;;4.70;2.80;;;;;;;10.17;76.14;96186.91;6184882;23;20027;-78
2023/11/01 00:25:11;;;;;;;7.45;4.18;;;;;;;10.17;76.22;96186.91;6184627;23;20104;-79
2023/11/01 00:27:39;;;;;;;8.85;4.85;;;;;;;10.16;76.37;96184.50;6184793;23;20048;-79
2023/11/01 00:30:08;;;;;;;6.82;3.47;;;;;;;10.14;76.44;96189.88;6184690;23;20336;-79
2023/11/01 00:32:39;;;;;;;4.53;2.55;;;;;;;10.16;76.60;96187.09;6184703;23;20025;-79
2023/11/01 00:35:09;;;;;;;3.55;2.42;;;;;;;10.17;76.46;96181.72;6184524;23;20029;-80
2023/11/01 00:37:36;;;;;;;3.08;1.90;;;;;;;10.18;76.37;96182.50;6184670;23;20100;-79
2023/11/01 00:40:05;;;;;;;3.20;1.45;;;;;;;10.19;76.46;96189.31;6184412;23;20108;-78
2023/11/01 00:42:32;;;;;;;2.67;1.27;;;;;;;10.19;76.52;96187.53;6186726;23;20359;-79
2023/11/01 00:45:00;;;;;;;1.65;1.17;;;;;;;10.19;76.55;96187.53;6205185;23;20052;-79
2023/11/01 00:47:28;;;;;;;2.17;1.67;;;;;;;10.25;76.83;96194.56;6206838;23;20025;-80
2023/11/01 00:49:55;;;;;;;1.88;0.90;;;;;;;10.31;77.60;96178.22;6186562;23;20025;-79
2023/11/01 00:52:25;;;;;;;1.08;0.40;;;;;;;10.36;77.10;96179.44;6184983;23;20505;-79
2023/11/01 00:54:52;;;;;;;3.30;0.88;;;;;;;10.41;79.79;96184.91;6184766;23;20044;-79
2023/11/01 00:57:20;;;;;;;3.83;1.33;;;;;;;10.47;78.64;96181.53;6184458;23;20095;-79
2023/11/01 00:59:48;;;;;;;3.50;1.95;;;;;;;10.50;78.88;96186.38;6184065;23;20075;-79
2023/11/01 01:02:15;;;;;;;3.78;1.05;;;;;;;10.55;78.05;96178.78;6184671;23;20096;-79
2023/11/01 01:04:45;;;;;;;1.95;0.82;;;;;;;10.58;78.59;96183.59;6184261;23;20049;-79
2023/11/01 01:07:13;;;;;;;1.13;0.82;;;;;;;10.61;79.59;96183.22;6184860;23;20077;-78
2023/11/01 01:09:42;;;;;;;0.80;0.50;;;;;;;10.63;78.32;96183.03;6186551;23;20407;-79
2023/11/01 01:12:09;;;;;;;0.95;0.50;;;;;;;10.62;78.39;96184.81;6186094;23;20103;-79
2023/11/01 01:14:37;;;;;;;1.70;0.70;;;;;;;10.63;79.85;96168.19;6186056;23;20021;-79
2023/11/01 01:17:05;;;;;;;1.75;0.77;;;;;;;10.64;78.59;96164.56;6186243;23;20029;-78
2023/11/01 01:19:33;;;;;;;2.72;1.30;;;;;;;10.64;78.04;96161.16;6186509;23;20083;-79
2023/11/01 01:22:00;;;;;;;1.50;1.38;;;;;;;10.63;78.73;96159.56;6186344;23;20477;-79
2023/11/01 01:24:28;;;;;;;3.35;0.88;;;;;;;10.64;78.00;96156.75;6186083;23;20049;-79
2023/11/01 01:26:57;;;;;;;2.33;1.02;;;;;;;10.61;77.55;96157.16;6186351;23;20029;-80
2023/11/01 01:29:24;;;;;;;7.57;1.60;;;;;;;10.59;77.49;96153.94;6185944;23;20060;-79
2023/11/01 01:31:52;;;;;;;2.67;1.48;;;;;;;10.58;77.27;96157.50;6186452;23;20029;-79
2023/11/01 01:34:20;;;;;;;1.70;1.13;;;;;;;10.56;78.04;96158.72;6186324;23;20057;-79
2023/11/01 01:36:47;;;;;;;1.67;0.90;;;;;;;10.58;79.12;96152.31;6186498;23;20419;-78
2023/11/01 01:39:15;;;;;;;2.80;1.02;;;;;;;10.57;78.55;96145.47;6186419;23;20463;-78
2023/11/01 01:41:42;;;;;;;2.85;1.52;;;;;;;10.57;78.84;96145.47;6187014;23;20357;-78
2023/11/01 01:44:11;;;;;;;5.30;1.30;;;;;;;10.60;80.92;96149.50;6186161;23;20486;-79
2023/11/01 01:46:39;;;;;;;1.20;1.05;;;;;;;10.59;79.30;96153.94;6186292;23;20091;-79
2023/11/01 01:49:07;;;;;;;2.97;1.10;;;;;;;10.57;78.59;96150.69;6200061;23;20025;-79
2023/11/01 01:51:36;;;;;;;1.48;1.10;;;;;;;10.58;80.18;96152.31;6186853;23;20459;-78
2023/11/01 01:54:04;;;;;;;3.83;1.33;;;;;;;10.59;79.57;96153.13;6185755;23;20021;-78
2023/11/01 01:56:31;;;;;;;2.38;0.95;;;;;;;10.55;79.82;96147.47;6185977;23;20025;-79
2023/11/01 01:58:59;;;;;;;1.02;0.80;;;;;;;10.53;79.46;96144.25;6184685;23;20029;-79
2023/11/01 02:01:32;;;;;;;5.45;1.63;;;;;;;10.48;78.54;96139.63;6183803;23;20105;-78
2023/11/01 02:04:12;;;;;;;3.47;1.58;;;;;;;10.50;78.99;96139.44;6184406;23;20024;-78
2023/11/01 02:06:40;;;;;;;2.13;0.77;;;;;;;10.51;78.41;96135.81;6183541;23;20024;-79
2023/11/01 02:09:15;;;;;;;1.20;1.10;;;;;;;10.49;77.90;96132.59;6184649;23;20017;-79
2023/11/01 02:11:43;;;;;;;3.63;1.00;;;;;;;10.47;77.75;96124.16;6184370;23;20024;-78
2023/11/01 02:14:10;;;;;;;1.65;1.13;;;;;;;10.47;78.63;96118.94;6184178;23;20072;-79
2023/11/01 02:16:39;;;;;;;1.08;0.98;;;;;;;10.45;77.85;96115.72;6185704;23;20017;-79
2023/11/01 02:19:08;;;;;;;1.77;1.00;;;;;;;10.43;77.95;96108.13;6185800;23;20354;-79
2023/11/01 02:21:36;;;;;;;1.17;0.90;;;;;;;10.39;77.67;96093.84;6186050;23;20021;-79
2023/11/01 02:24:05;;;;;;;1.13;1.00;;;;;;;10.37;78.53;96092.44;6185716;23;20483;-78
2023/11/01 02:26:33;;;;;;;1.88;1.00;;;;;;;10.38;78.36;96088.81;6185374;23;20489;-79
2023/11/01 02:29:01;;;;;;;2.65;1.65;;;;;;;10.38;78.15;96092.22;6185490;23;20471;-80
2023/11/01 02:31:28;;;;;;;4.35;1.40;;;;;;;10.36;78.25;96091.59;6185763;23;20048;-80
2023/11/01 02:33:56;;;;;;;1.48;1.30;;;;;;;10.34;78.08;96088.38;6186533;23;20087;-79
2023/11/01 02:36:23;;;;;;;2.85;1.88;;;;;;;10.31;79.16;96092.19;6185052;23;20597;-79
2023/11/01 02:38:51;;;;;;;6.47;1.63;;;;;;;10.31;78.47;96084.38;6185931;23;20040;-78
2023/11/01 02:41:20;;;;;;;1.90;1.58;;;;;;;10.30;79.08;96079.38;6185954;23;20021;-79
2023/11/01 02:43:47;;;;;;;4.85;1.70;;;;;;;10.33;78.77;96078.16;6185569;23;20025;-79
2023/11/01 02:46:15;;;;;;;2.65;1.20;;;;;;;10.34;78.40;96082.38;6185246;23;20025;-79
2023/11/01 02:48:42;;;;;;;1.63;1.33;;;;;;;10.34;79.99;96071.94;6185558;23;20017;-79
2023/11/01 02:51:10;;;;;;;3.83;1.50;;;;;;;10.33;79.68;96080.78;6186418;23;20104;-80
2023/11/01 02:53:38;;;;;;;3.35;1.45;;;;;;;10.29;78.48;96085.56;6185797;23;20044;-79
2023/11/01 02:56:06;;;;;;;2.35;1.55;;;;;;;10.28;79.08;96079.53;6187599;23;20021;-78
2023/11/01 02:58:37;;;;;;;6.80;1.67;;;;;;;10.29;80.05;96086.34;6185655;23;20103;-79
2023/11/01 03:01:05;;;;;;;2.40;1.90;;;;;;;10.31;81.22;96089.59;6185798;23;20024;-79
2023/11/01 03:03:33;;;;;;;3.35;1.60;;;;;;;10.29;79.76;96088.97;6185060;23;20107;-79
2023/11/01 03:06:00;;;;;;;2.88;1.77;;;;;;;10.26;80.30;96084.13;6185050;23;20100;-79
2023/11/01 03:08:28;;;;;;;4.10;2.00;;;;;;;10.23;79.70;96089.72;6185961;23;20032;-79
2023/11/01 03:10:56;;;;;;;6.10;2.00;;;;;;;10.24;80.06;96082.69;6185119;23;20020;-79
2023/11/01 03:13:23;;;;;;;3.92;1.80;;;;;;;10.24;79.11;96088.72;6185483;23;20568;-79
2023/11/01 03:15:52;;;;;;;2.45;1.75;;;;;;;10.22;78.56;96085.50;6185081;23;20095;-80
2023/11/01 03:18:20;;;;;;;2.17;1.75;;;;;;;10.22;78.42;96082.88;6185784;23;20028;-79
2023/11/01 03:20:47;;;;;;;3.30;2.33;;;;;;;10.22;78.23;96075.06;6185612;23;20407;-78
2023/11/01 03:23:15;;;;;;;5.00;2.03;;;;;;;10.22;78.00;96075.06;6185386;23;20031;-79
2023/11/01 03:25:43;;;;;;;3.45;2.20;;;;;;;10.21;77.69;96083.06;6185069;23;20069;-79
2023/11/01 03:28:10;;;;;;;3.95;2.35;;;;;;;10.17;77.98;96082.66;6185120;23;20021;-79
2023/11/01 03:30:38;;;;;;;3.70;2.85;;;;;;;10.16;78.01;96091.47;6191666;23;20436;-78
2023/11/01 03:33:06;;;;;;;4.60;2.90;;;;;;;10.16;78.09;96093.28;6192728;23;20104;-79
2023/11/01 03:35:34;;;;;;;5.93;2.97;;;;;;;10.13;78.19;96085.84;6185023;23;20367;-80
2023/11/01 03:38:02;;;;;;;4.35;2.65;;;;;;;10.12;78.16;96087.63;6185544;23;20406;-78
2023/11/01 03:40:29;;;;;;;3.92;3.08;;;;;;;10.11;78.26;96093.84;6184961;23;20545;-79
2023/11/01 03:42:57;;;;;;;4.45;3.17;;;;;;;10.13;78.16;96088.47;6184877;23;20096;-79
2023/11/01 03:45:24;;;;;;;5.30;2.90;;;;;;;10.14;78.59;96083.03;6184563;23;20526;-79
2023/11/01 03:47:52;;;;;;;4.25;2.97;;;;;;;10.17;78.95;96087.88;6185345;23;20460;-79
2023/11/01 03:50:21;;;;;;;4.18;2.70;;;;;;;10.17;78.33;96080.06;6185290;23;20021;-78
2023/11/01 03:52:49;;;;;;;4.88;3.22;;;;;;;10.17;78.02;96076.66;6185081;23;20346;-79
2023/11/01 03:55:16;;;;;;;5.63;3.83;;;;;;;10.14;77.90;96074.41;6184931;23;20028;-79
2023/11/01 03:57:44;;;;;;;4.95;3.35;;;;;;;10.11;78.09;96067.78;6184754;23;20420;-79
2023/11/01 04:00:20;;;;;;;4.78;4.05;;;;;;;10.10;78.99;96066.16;6184774;23;20104;-80
2023/11/01 04:02:50;;;;;;;5.40;3.60;;;;;;;10.11;79.56;96062.56;6196592;23;20025;-79
2023/11/01 04:05:18;;;;;;;5.55;3.80;;;;;;;10.13;78.69;96054.56;6206678;23;20021;-79
2023/11/01 04:07:47;;;;;;;4.38;3.60;;;;;;;10.12;78.57;96058.97;6200126;23;20025;-80
2023/11/01 04:10:15;;;;;;;4.70;3.88;;;;;;;10.11;79.13;96059.97;6185929;23;20032;-79
2023/11/01 04:12:42;;;;;;;5.57;3.72;;;;;;;10.06;78.65;96052.72;6185109;23;20408;-79
2023/11/01 04:15:12;;;;;;;5.80;3.67;;;;;;;10.06;78.30;96051.94;6185285;23;20052;-79
2023/11/01 04:17:40;;;;;;;5.88;3.92;;;;;;;10.07;78.09;96040.50;6185258;23;20021;-79
2023/11/01 04:20:09;;;;;;;4.72;3.90;;;;;;;10.08;77.84;96042.13;6185643;23;20028;-79
2023/11/01 04:22:37;;;;;;;6.22;4.03;;;;;;;10.07;77.75;96050.94;6184836;23;20029;-80
2023/11/01 04:25:10;;;;;;;8.05;5.00;;;;;;;10.05;77.90;96045.09;6184605;23;20455;-79
2023/11/01 04:27:39;;;;;;;8.77;5.25;;;;;;;10.00;77.75;96039.66;6184635;23;20055;-79
2023/11/01 04:30:09;;;;;;;5.97;4.80;;;;;;;9.97;77.75;96042.63;6184846;23;20104;-79
2023/11/01 04:32:37;;;;;;;5.70;5.10;;;;;;;9.93;77.68;96036.19;6184417;23;20029;-79
2023/11/01 04:35:09;;;;;;;6.28;4.82;;;;;;;9.89;78.02;96038.41;6184118;23;20522;-79
2023/11/01 04:37:37;;;;;;;7.25;5.40;;;;;;;9.84;77.93;96035.56;6184660;23;20032;-78
2023/11/01 04:40:08;;;;;;;5.32;4.82;;;;;;;9.77;78.13;96030.28;6184319;23;20025;-79
2023/11/01 04:42:38;;;;;;;6.85;5.03;;;;;;;9.74;78.24;96028.06;6184881;23;20025;-79
2023/11/01 04:45:07;;;;;;;6.43;5.30;;;;;;;9.74;78.42;96033.28;6184554;23;20025;-79
2023/11/01 04:47:35;;;;;;;8.10;6.38;;;;;;;9.73;78.36;96034.28;6184597;23;20032;-78
2023/11/01 04:50:08;;;;;;;8.38;6.43;;;;;;;9.70;78.60;96032.84;6184775;23;20031;-79
2023/11/01 04:52:36;;;;;;;7.78;7.00;;;;;;;9.68;80.00;96027.03;6184725;23;20096;-79
2023/11/01 04:55:05;;;;;;;8.30;6.80;;;;;;;9.66;80.81;96028.22;6184320;23;20044;-79
2023/11/01 04:57:34;;;;;;;7.53;6.15;;;;;;;9.62;79.75;96029.59;6184884;23;20455;-79
2023/11/01 05:00:08;;;;;;;8.82;6.22;;;;;;;9.57;79.38;96034.56;6185194;23;20414;-79
2023/11/01 05:02:36;;;;;;;8.88;6.53;;;;;;;9.53;79.04;96025.50;6184353;23;20064;-80
2023/11/01 05:05:05;;;;;;;6.78;6.07;;;;;;;9.49;79.26;96015.50;6184968;23;20100;-79
2023/11/01 05:07:33;;;;;;;11.32;7.25;;;;;;;9.45;79.25;96022.06;6185177;23;20020;-78
2023/11/01 05:10:02;;;;;;;9.15;7.25;;;;;;;9.41;79.41;96015.63;6184509;23;20052;-79
2023/11/01 05:12:30;;;;;;;7.30;6.60;;;;;;;9.38;79.17;96020.38;6185071;23;20354;-79
2023/11/01 05:15:00;;;;;;;9.65;7.28;;;;;;;9.32;79.32;96011.56;6184219;23;20569;-79
2023/11/01 05:17:28;;;;;;;8.55;7.03;;;;;;;9.30;79.62;96010.13;6184641;23;20045;-79
2023/11/01 05:19:56;;;;;;;9.60;6.75;;;;;;;9.31;79.63;96003.91;6184719;23;20025;-79
2023/11/01 05:22:24;;;;;;;9.70;7.57;;;;;;;9.30;79.47;96005.72;6184706;23;20099;-78
2023/11/01 05:24:51;;;;;;;9.02;7.47;;;;;;;9.32;79.94;96001.16;6184594;23;20025;-79
2023/11/01 05:27:19;;;;;;;12.82;7.20;;;;;;;9.36;79.71;95999.78;6184329;23;20096;-78
2023/11/01 05:29:47;;;;;;;9.48;7.18;;;;;;;9.36;79.96;95997.16;6184479;23;20459;-78
2023/11/01 05:32:16;;;;;;;10.02;6.97;;;;;;;9.38;79.84;95996.97;6184607;23;20021;-78
2023/11/01 05:34:45;;;;;;;9.23;7.18;;;;;;;9.38;79.33;95995.19;6184608;23;20032;-78
2023/11/01 05:37:13;;;;;;;8.10;7.18;;;;;;;9.37;79.96;95985.75;6184656;23;20367;-79
2023/11/01 05:39:41;;;;;;;8.00;7.13;;;;;;;9.40;80.98;95987.16;6196096;23;20072;-79
2023/11/01 05:42:09;;;;;;;8.60;6.32;;;;;;;9.42;80.13;95986.00;6184645;23;20029;-79
2023/11/01 05:44:36;;;;;;;6.82;5.95;;;;;;;9.41;79.73;95989.59;6184424;23;20021;-79
2023/11/01 05:47:04;;;;;;;7.20;6.30;;;;;;;9.43;79.71;95982.41;6184237;23;20025;-79
2023/11/01 05:49:33;;;;;;;6.50;5.75;;;;;;;9.46;79.41;95982.00;6184302;23;20091;-79
2023/11/01 05:52:00;;;;;;;7.10;5.80;;;;;;;9.46;78.75;95976.00;6185063;23;20095;-80
2023/11/01 05:54:28;;;;;;;7.65;6.53;;;;;;;9.44;78.67;95978.78;6184742;23;20052;-78
2023/11/01 05:56:56;;;;;;;9.60;6.38;;;;;;;9.43;78.45;95976.41;6186134;23;20096;-78
2023/11/01 05:59:23;;;;;;;7.38;5.40;;;;;;;9.44;78.34;95975.38;6185704;23;20032;-78
2023/11/01 06:01:52;;;;;;;8.07;5.93;;;;;;;9.43;78.28;95977.19;6186041;23;20025;-79
2023/11/01 06:04:21;;;;;;;12.40;6.28;;;;;;;9.45;78.30;95975.22;6186262;23;20021;-79
2023/11/01 06:06:50;;;;;;;6.03;5.43;;;;;;;9.47;79.98;95983.63;6191004;23;20028;-79
2023/11/01 06:09:19;;;;;;;7.57;6.78;;;;;;;9.51;79.10;95973.66;6203179;23;20025;-78
2023/11/01 06:11:47;;;;;;;8.40;6.50;;;;;;;9.53;78.53;95983.84;6186036;23;20097;-79
2023/11/01 06:26:21;;;;;;;10.50;7.35;;;;;;;9.37;77.73;95977.94;6135965;23;20048;-79
2023/11/01 06:28:58;;;;;;;8.88;6.85;;;;;;;9.34;78.06;95987.94;6128048;23;20022;-79
2023/11/01 06:31:51;;;;;;;9.00;6.55;;;;;;;9.31;78.05;95983.91;6128085;23;20026;-79
2023/11/01 06:34:29;;;;;;;8.73;6.93;;;;;;;9.30;78.07;95981.50;6127791;23;20556;-79
2023/11/01 06:43:55;;;;;;;7.45;6.20;;;;;;;9.19;78.17;95965.41;6127859;23;20088;-79
2023/11/01 06:50:09;;;;;;;8.27;6.43;;;;;;;9.15;78.60;95971.97;6128398;23;20057;-79
2023/11/01 06:55:57;;;;;;;8.55;6.55;;;;;;;9.23;79.33;95968.44;6115868;23;20408;-79
2023/11/01 06:58:57;;;;;;;7.60;6.40;;;;;;;9.28;78.66;95972.06;6123526;23;20491;-79
2023/11/01 07:08:48;;;;;;;5.95;4.65;;;;;;;9.41;78.01;95968.75;6013512;23;20020;-79
2023/11/01 07:11:19;;;;;;;8.07;4.70;;;;;;;9.44;77.92;95970.97;6014832;23;20023;-78
2023/11/01 07:13:57;;;;;;;;;;;;;;;9.47;77.87;95962.81;6039384;23;20019;-78
2023/11/01 07:24:05;;;;;;;6.40;4.70;;;;;;;9.76;76.62;95960.97;5949660;24;20052;-78
2023/11/01 07:29:45;;;;;;;6.45;4.30;;;;;;;9.74;76.99;95968.16;5954427;24;20021;-78
2023/11/01 07:36:36;;;;;;;4.30;3.50;;;;;;;9.79;76.76;95971.00;5959499;24;20028;-78
2023/11/01 07:39:54;;;;;;;6.60;3.60;;;;;;;9.85;76.87;95967.63;5980984;23;20517;-78
2023/11/01 07:42:46;;;;;;;4.55;3.03;;;;;;;9.94;76.54;95973.47;5978477;23;20506;-79
2023/11/01 07:45:28;;;;;;;3.08;2.47;;;;;;;10.02;76.10;95964.72;5986994;24;20024;-78
2023/11/01 07:48:27;;;;;;;3.05;2.17;;;;;;;10.12;76.00;95965.16;5984446;24;20386;-78
2023/11/01 07:51:12;;;;;;;2.38;1.90;;;;;;;10.26;75.77;95961.59;6009239;23;20098;-78
2023/11/01 07:53:54;;;;;;;4.03;2.00;;;;;;;10.41;76.32;95964.09;6127516;23;20026;-79
2023/11/01 07:56:56;;;;;;;3.88;2.33;;;;;;;10.60;74.90;95962.53;6126993;23;20021;-79
2023/11/01 08:02:14;;;;;;;9.43;5.72;;;;;;;10.95;76.09;95958.97;6126215;23;20368;-80
2023/11/01 08:04:43;;;;;;;6.50;2.88;;;;;;;11.14;75.97;95953.75;6125888;23;20029;-78
2023/11/01 08:07:11;;;;;;;1.63;1.48;;;;;;;11.37;74.77;95952.56;6126265;23;20417;-79
2023/11/01 08:09:42;;;;;;;1.77;1.40;;;;;;;11.56;73.09;95950.91;6128056;23;20018;-79
2023/11/01 08:12:11;;;;;;;2.85;1.33;;;;;;;11.79;72.00;95947.06;6125800;23;20025;-78
2023/11/01 08:14:40;;;;;;;1.48;1.15;;;;;;;12.02;70.94;95941.38;6125649;23;20022;-79
2023/11/01 08:17:08;;;;;;;1.75;1.25;;;;;;;12.27;70.22;95938.88;6125539;23;20080;-78
2023/11/01 08:19:36;;;;;;;2.28;1.90;;;;;;;12.47;68.77;95930.94;6126218;23;20025;-79
2023/11/01 08:22:06;;;;;;;5.22;1.98;;;;;;;12.67;68.19;95915.13;6126598;23;20081;-79
2023/11/01 08:24:34;;;;;;;4.78;1.60;;;;;;;13.10;67.02;95924.88;6126386;23;20044;-79
2023/11/01 08:27:02;;;;;;;3.88;1.50;;;;;;;13.18;66.03;95917.56;6125189;23;20041;-78
2023/11/01 08:29:33;;;;;;;3.78;1.90;;;;;;;13.22;67.23;95917.13;6125272;23;20093;-78
2023/11/01 08:32:00;;;;;;;1.92;1.27;;;;;;;13.35;66.38;95917.03;6125315;23;20026;-78
2023/11/01 08:34:28;;;;;;;3.83;1.77;;;;;;;13.63;65.42;95918.38;6124790;23;20077;-77
2023/11/01 08:36:56;;;;;;;2.80;1.00;;;;;;;13.94;64.13;95926.09;6125115;23;20021;-78
2023/11/01 08:39:24;;;;;;;1.60;1.20;;;;;;;14.08;63.38;95925.94;6125929;23;20025;-78
2023/11/01 08:41:52;;;;;;;2.20;1.08;;;;;;;14.03;63.22;95926.59;6125738;23;20505;-78
2023/11/01 08:44:19;;;;;;;2.38;1.48;;;;;;;14.08;63.33;95921.50;6125597;23;20026;-77
2023/11/01 08:46:48;;;;;;;59.17;5.65;;;;;;;14.23;62.87;95923.72;6126685;23;20089;-78
2023/11/01 08:49:16;;;;;;;2.50;1.08;;;;;;;14.48;62.57;95922.81;6127179;23;20022;-80
2023/11/01 08:51:44;;;;;;;35.83;21.38;;;;;;;14.63;62.75;95924.03;6134529;23;20054;-78
2023/11/01 08:54:11;;;;;;;4.70;2.13;;;;;;;14.80;61.71;95911.09;6125913;23;20492;-78
2023/11/01 08:56:39;;;;;;;5.07;1.88;;;;;;;15.12;60.60;95910.00;6128419;23;20018;-80
2023/11/01 08:59:07;;;;;;;2.30;1.15;;;;;;;15.49;59.41;95904.50;6126032;23;20018;-79
2023/11/01 09:01:40;;;;;;;2.47;1.20;;;;;;;15.83;57.82;95906.34;6126587;23;20104;-78
2023/11/01 09:04:09;;;;;;;1.25;1.10;;;;;;;16.00;59.56;95911.66;6130560;23;20032;-80
2023/11/01 09:06:47;;;;;;;1.35;0.93;;;;;;;16.10;57.79;95905.81;6148377;23;20022;-81
2023/11/01 09:09:33;;;;;;;1.77;1.02;;;;;;;16.32;61.48;95915.69;6148106;23;20053;-80
2023/11/01 09:12:03;;;;;;;2.47;1.05;;;;;;;16.59;57.77;95918.56;6150426;23;20023;-80
2023/11/01 09:14:31;;;;;;;2.22;1.30;;;;;;;16.78;56.67;95917.31;6149500;23;20026;-80
2023/11/01 09:16:59;;;;;;;2.53;1.17;;;;;;;16.92;59.20;95909.91;6138481;23;20021;-80
2023/11/01 09:19:28;;;;;;;1.83;1.00;;;;;;;17.11;55.55;95920.25;6145574;23;20022;-80
2023/11/01 09:21:56;;;;;;;2.08;1.13;;;;;;;17.32;54.86;95913.44;6150933;23;20018;-80
2023/11/01 09:24:24;;;;;;;3.72;1.25;;;;;;;17.50;53.63;95907.91;6150106;23;20036;-80
2023/11/01 09:26:52;;;;;;;1.50;0.98;;;;;;;17.65;56.42;95907.34;6141326;23;20464;-80
2023/11/01 09:29:19;;;;;;;2.03;1.42;;;;;;;17.83;57.23;95906.28;6150272;23;20050;-84
2023/11/01 09:31:47;;;;;;;1.63;0.90;;;;;;;17.94;55.34;95912.47;6146058;23;20022;-84
2023/11/01 09:34:15;;;;;;;6.45;1.67;;;;;;;17.98;54.88;95898.56;6138158;23;20026;-84
2023/11/01 09:36:44;;;;;;;1.92;1.00;;;;;;;18.18;52.20;95897.97;6128999;23;20457;-84
2023/11/01 09:39:12;;;;;;;2.33;1.48;;;;;;;18.28;51.39;95907.88;6127123;23;20030;-83
2023/11/01 09:41:48;;;;;;;2.78;1.25;;;;;;;18.38;49.63;95915.88;6128193;23;20049;-84
2023/11/01 09:44:20;;;;;;;3.38;1.23;;;;;;;18.52;49.66;95917.09;6129253;23;20403;-84
2023/11/01 09:46:51;;;;;;;1.15;0.70;;;;;;;18.75;49.74;95912.56;6131284;23;20210;-85
2023/11/01 09:49:20;;;;;;;3.17;1.03;;;;;;;18.96;49.19;95918.06;6130977;23;20024;-84
2023/11/01 09:51:50;;;;;;;4.32;1.40;;;;;;;19.13;48.12;95918.72;6130319;23;20021;-84
2023/11/01 09:54:17;;;;;;;3.60;1.02;;;;;;;19.29;47.70;95912.50;6127042;23;20044;-85
2023/11/01 09:56:46;;;;;;;1.55;0.80;;;;;;;19.51;48.67;95908.97;6126929;23;20022;-85
2023/11/01 09:59:15;;;;;;;1.00;0.85;;;;;;;19.69;47.36;95913.03;6132070;23;20022;-84
2023/11/01 10:01:42;;;;;;;3.00;0.90;;;;;;;19.85;46.61;95919.22;6127414;23;20046;-81
2023/11/01 10:04:11;;;;;;;1.33;1.08;;;;;;;19.95;45.81;95908.69;6127902;23;20092;-81
2023/11/01 10:06:38;;;;;;;1.67;1.15;;;;;;;19.95;45.86;95919.28;6127201;23;20049;-82
2023/11/01 10:09:07;;;;;;;4.22;1.30;;;;;;;19.96;46.39;95905.78;6127374;23;20096;-84
2023/11/01 10:11:35;;;;;;;2.92;0.90;;;;;;;20.15;47.23;95898.16;6127762;23;20045;-84
2023/11/01 10:14:03;;;;;;;1.38;1.13;;;;;;;20.32;46.01;95902.47;6127483;23;20352;-83
2023/11/01 10:16:31;;;;;;;1.50;1.00;;;;;;;20.38;46.54;95890.84;6132211;23;20025;-86
2023/11/01 10:19:00;;;;;;;2.63;0.93;;;;;;;20.42;48.02;95897.19;6132045;23;20041;-86
2023/11/01 10:21:35;;;;;;;1.50;1.02;;;;;;;20.45;46.14;95894.03;6132791;23;20021;-87
2023/11/01 10:24:06;;;;;;;2.40;1.02;;;;;;;20.45;45.98;95872.84;6130601;23;20085;-84
2023/11/01 10:26:36;;;;;;;2.28;0.93;;;;;;;20.43;45.46;95880.25;6151797;23;20010;-83
2023/11/01 10:29:04;;;;;;;2.17;1.35;;;;;;;20.40;46.93;95879.97;6152810;23;20030;-85
2023/11/01 10:31:31;;;;;;;1.88;1.25;;;;;;;20.40;46.91;95878.13;6142111;23;20022;-85
2023/11/01 10:33:59;;;;;;;2.28;1.30;;;;;;;20.47;46.49;95878.66;6136345;23;20499;-84
2023/11/01 10:36:27;;;;;;;3.20;1.40;;;;;;;20.58;48.11;95868.91;6134132;23;20421;-85
2023/11/01 10:38:55;;;;;;;1.90;0.90;;;;;;;20.71;48.83;95878.22;6150081;23;20022;-84
2023/11/01 10:41:24;;;;;;;1.77;0.95;;;;;;;20.77;48.84;95872.66;6151997;23;20049;-83
2023/11/01 10:43:55;;;;;;;2.67;1.35;;;;;;;20.89;48.96;95867.09;6136799;23;20026;-84
2023/11/01 10:46:23;;;;;;;1.90;0.98;;;;;;;21.05;47.04;95865.22;6133923;23;20014;-84
2023/11/01 10:48:52;;;;;;;2.63;1.08;;;;;;;21.18;46.15;95864.66;6133567;23;20048;-84
2023/11/01 10:51:20;;;;;;;0.88;0.65;;;;;;;21.26;44.31;95854.59;6133369;23;20037;-83
2023/11/01 10:53:47;;;;;;;3.00;0.73;;;;;;;21.34;47.10;95851.38;6131864;23;20061;-83
2023/11/01 10:56:15;;;;;;;1.52;1.13;;;;;;;21.44;44.30;95842.66;6132759;23;20018;-84
2023/11/01 10:58:45;;;;;;;7.35;0.93;;;;;;;21.44;43.38;95837.34;6132257;23;20436;-84
2023/11/01 11:01:21;;;;;;;1.13;0.75;;;;;;;21.46;45.29;95835.22;6131643;23;20631;-83
2023/11/01 11:03:55;;;;;;;1.60;0.70;;;;;;;21.52;45.27;95839.47;6132280;23;20026;-83
2023/11/01 11:06:36;;;;;;;0.75;0.60;;;;;;;21.63;47.85;95830.41;6132678;23;20050;-84
2023/11/01 11:09:23;;;;;;;0.70;0.45;;;;;;;21.76;45.09;95816.53;6132641;23;20041;-84
2023/11/01 11:12:13;;;;;;;1.30;0.52;;;;;;;21.83;43.07;95802.19;6132344;23;20625;-84
2023/11/01 11:14:41;;;;;;;0.55;0.43;;;;;;;21.92;41.06;95800.53;6131195;23;20025;-85
2023/11/01 11:17:13;;;;;;;0.43;0.30;;;;;;;21.98;39.79;95791.50;6130849;23;20069;-85
2023/11/01 11:20:13;;;;;;;0.57;0.30;;;;;;;22.19;42.84;95795.63;6129237;23;20013;-84
2023/11/01 11:23:10;;;;;;;1.55;0.50;;;;;;;22.44;40.04;95787.78;6131221;23;20105;-84
2023/11/01 11:25:50;;;;;;;0.50;0.30;;;;;;;22.61;38.97;95788.19;6130315;23;20032;-83
2023/11/01 11:28:40;;;;;;;0.52;0.40;;;;;;;22.79;40.43;95790.16;6128558;23;20073;-83
2023/11/01 11:31:12;;;;;;;2.45;0.65;;;;;;;22.86;39.64;95797.78;6128351;23;20176;-88
2023/11/01 11:34:15;;;;;;;2.27;0.67;;;;;;;22.92;39.90;95799.34;6126329;23;20416;-88
2023/11/01 11:37:13;;;;;;;0.85;0.20;;;;;;;23.15;42.93;95799.69;6125996;23;20018;-87
2023/11/01 11:39:57;;;;;;;0.60;0.30;;;;;;;23.33;38.72;95783.00;6126655;23;20041;-85
2023/11/01 11:42:48;;;;;;;1.65;0.65;;;;;;;23.09;39.82;95776.84;6128110;23;20018;-85
2023/11/01 11:45:32;;;;;;;1.35;0.40;;;;;;;22.81;38.29;95774.72;6127400;23;20088;-86
2023/11/01 11:48:36;;;;;;;0.63;0.30;;;;;;;22.42;40.30;95774.75;6129959;23;20022;-88
2023/11/01 11:51:11;;;;;;;2.13;0.30;;;;;;;22.12;38.77;95779.16;6124739;23;20022;-88
2023/11/01 11:53:41;;;;;;;0.75;0.40;;;;;;;21.90;40.85;95760.97;6131663;23;20014;-84
2023/11/01 11:56:11;;;;;;;0.55;0.45;;;;;;;21.76;39.76;95758.13;6140888;23;20018;-87
2023/11/01 11:58:40;;;;;;;1.52;0.63;;;;;;;21.64;39.25;95757.66;6126516;23;20360;-88
2023/11/01 12:01:12;;;;;;;0.82;0.40;;;;;;;21.55;40.66;95754.00;6129278;23;20089;-87
2023/11/01 12:03:45;;;;;;;0.98;0.45;;;;;;;21.36;41.01;95741.31;6126736;23;20018;-89
2023/11/01 12:06:23;;;;;;;1.20;0.40;;;;;;;21.17;39.93;95737.66;6126060;23;20018;-88
2023/11/01 12:08:56;;;;;;;2.55;0.40;;;;;;;21.07;42.85;95732.38;6126205;23;20093;-89
2023/11/01 12:11:34;;;;;;;1.35;0.40;;;;;;;21.00;42.36;95732.66;6126541;23;20484;-89
2023/11/01 12:14:08;;;;;;;0.88;0.40;;;;;;;20.88;40.44;95725.00;6129212;23;20018;-89
2023/11/01 12:16:39;;;;;;;1.95;0.57;;;;;;;20.76;42.03;95719.97;6127507;23;20097;-88
2023/11/01 12:19:18;;;;;;;1.38;0.52;;;;;;;20.62;42.45;95721.59;6126906;23;20474;-89
2023/11/01 12:21:57;;;;;;;0.63;0.43;;;;;;;20.42;47.93;95726.88;6126301;23;20018;-89
2023/11/01 12:24:28;;;;;;;1.25;0.63;;;;;;;20.23;44.85;95718.69;6125755;23;20025;-88
2023/11/01 12:27:09;;;;;;;2.45;1.30;;;;;;;20.07;47.79;95709.91;6125812;23;20025;-88
2023/11/01 12:29:43;;;;;;;1.30;0.77;;;;;;;19.96;44.00;95719.69;6125901;23;20014;-87
2023/11/01 12:32:15;;;;;;;0.35;0.25;;;;;;;19.81;47.26;95717.00;6126400;23;20033;-89
2023/11/01 12:35:11;;;;;;;0.57;0.40;;;;;;;19.64;47.51;95718.03;6134589;23;20021;-90
2023/11/01 12:37:47;;;;;;;2.45;0.60;;;;;;;19.46;44.43;95718.47;6127311;23;20073;-89
2023/11/01 12:40:26;;;;;;;1.67;0.45;;;;;;;19.33;44.74;95717.91;6127229;23;20349;-88
2023/11/01 12:43:16;;;;;;;1.65;0.38;;;;;;;19.25;44.26;95715.75;6127300;23;20089;-89